logo
Rechercher aéroport 
image banner adimage banner adimage banner ad
image banner ad

M45 - Alpine County

Situé à Markleeville, United States

ICAO - M45, IATA -

Données fournies par Airmate  

Information générale

Coordonnées: N38°44'5" W119°46'1"
Élévation : 5872 feet MSL.
Variation magnétique : 16° East
Voir autres Aéroports à California

Données opérationnelles

Special qualification required
Heure actuelle UTC:
Heure actuelle locale:
Météo à : KTVL - Lake Tahoe ( 27 km )
METAR: KTVL 281253Z AUTO 20003KT 10SM CLR 02/M02 A3026 RMK AO2 SLP206 T00221017
TAF: KTVL 281120Z 2812/2912 18005KT P6SM SCT180 WS020/23035KT FM281500 20010G18KT P6SM SCT200 FM281900 20016G26KT P6SM SCT200 FM290300 19008KT P6SM BKN200 WS020/22035KT
Voir NOTAMs / SUP AIP / TFR affectant cet aéroport [VIEW]
Fréquences de communication: [VIEW]

Pistes:

Identifiant RWYQFULongueur (ft)Largeur (ft)SurfaceLDA (ft)
17184°444350ASPH
35444350ASPH

Coordonnées de l'aéroport

Adresse: Markleeville United States

Vue satellite de M45